sensor_id;sensor_type;location;lat;lon;timestamp;pressure;altitude;pressure_sealevel;temperature;humidity
47785;BME280;35233;55.686;37.848;2023-06-22T00:02:21;100034.94;;;20.97;48.74
47785;BME280;35233;55.686;37.848;2023-06-22T00:04:46;100048.25;;;20.99;48.83
47785;BME280;35233;55.686;37.848;2023-06-22T00:07:14;100040.38;;;20.96;49.06
47785;BME280;35233;55.686;37.848;2023-06-22T00:09:39;100035.97;;;20.95;49.32
47785;BME280;35233;55.686;37.848;2023-06-22T00:12:05;100036.94;;;20.94;48.94
47785;BME280;35233;55.686;37.848;2023-06-22T00:14:31;100034.44;;;20.91;49.35
47785;BME280;35233;55.686;37.848;2023-06-22T00:16:56;100036.19;;;20.92;49.11
47785;BME280;35233;55.686;37.848;2023-06-22T00:19:23;100036.19;;;20.92;49.25
47785;BME280;35233;55.686;37.848;2023-06-22T00:21:52;100035.63;;;20.87;49.01
47785;BME280;35233;55.686;37.848;2023-06-22T00:24:19;100047.97;;;20.89;49.28
47785;BME280;35233;55.686;37.848;2023-06-22T00:26:50;100039.34;;;20.84;49.25
47785;BME280;35233;55.686;37.848;2023-06-22T00:29:16;100042.03;;;20.84;49.04
47785;BME280;35233;55.686;37.848;2023-06-22T00:31:44;100048.38;;;20.83;49.41
47785;BME280;35233;55.686;37.848;2023-06-22T00:34:10;100048.28;;;20.85;49.49
47785;BME280;35233;55.686;37.848;2023-06-22T00:36:36;100052.88;;;20.83;49.16
47785;BME280;35233;55.686;37.848;2023-06-22T00:39:01;100050.50;;;20.78;49.31
47785;BME280;35233;55.686;37.848;2023-06-22T00:41:29;100052.13;;;20.80;49.03
47785;BME280;35233;55.686;37.848;2023-06-22T00:43:55;100037.16;;;20.76;49.39
47785;BME280;35233;55.686;37.848;2023-06-22T00:46:21;100038.03;;;20.77;49.70
47785;BME280;35233;55.686;37.848;2023-06-22T00:48:48;100042.44;;;20.78;49.16
47785;BME280;35233;55.686;37.848;2023-06-22T00:51:14;100048.59;;;20.80;49.22
47785;BME280;35233;55.686;37.848;2023-06-22T00:53:40;100044.34;;;20.76;49.57
47785;BME280;35233;55.686;37.848;2023-06-22T00:56:06;100042.72;;;20.73;49.37
47785;BME280;35233;55.686;37.848;2023-06-22T00:58:35;100044.47;;;20.74;49.32
47785;BME280;35233;55.686;37.848;2023-06-22T01:01:01;100047.16;;;20.74;49.42
47785;BME280;35233;55.686;37.848;2023-06-22T01:03:27;100041.78;;;20.74;49.35
47785;BME280;35233;55.686;37.848;2023-06-22T01:05:55;100043.56;;;20.74;49.19
47785;BME280;35233;55.686;37.848;2023-06-22T01:09:13;100047.16;;;20.74;48.96
47785;BME280;35233;55.686;37.848;2023-06-22T01:11:52;100043.56;;;20.74;49.27
47785;BME280;35233;55.686;37.848;2023-06-22T01:14:38;100053.25;;;20.76;49.43
47785;BME280;35233;55.686;37.848;2023-06-22T01:17:08;100042.72;;;20.73;49.24
47785;BME280;35233;55.686;37.848;2023-06-22T01:19:45;100052.41;;;20.76;49.17
47785;BME280;35233;55.686;37.848;2023-06-22T01:22:16;100055.94;;;20.76;49.01
47785;BME280;35233;55.686;37.848;2023-06-22T01:25:00;100054.22;;;20.75;49.17
47785;BME280;35233;55.686;37.848;2023-06-22T01:30:11;100046.56;;;20.69;48.88
47785;BME280;35233;55.686;37.848;2023-06-22T01:32:42;100060.56;;;20.74;49.16
47785;BME280;35233;55.686;37.848;2023-06-22T01:35:10;100054.22;;;20.75;49.11
47785;BME280;35233;55.686;37.848;2023-06-22T01:37:37;100054.16;;;20.77;48.79
47785;BME280;35233;55.686;37.848;2023-06-22T01:40:05;100051.56;;;20.75;49.06
47785;BME280;35233;55.686;37.848;2023-06-22T01:42:32;100053.25;;;20.76;49.00
47785;BME280;35233;55.686;37.848;2023-06-22T01:45:01;100054.16;;;20.77;48.83
47785;BME280;35233;55.686;37.848;2023-06-22T01:47:27;100056.91;;;20.75;48.77
47785;BME280;35233;55.686;37.848;2023-06-22T01:49:56;100051.47;;;20.77;49.20
47785;BME280;35233;55.686;37.848;2023-06-22T01:52:22;100054.16;;;20.77;49.24
47785;BME280;35233;55.686;37.848;2023-06-22T01:54:50;100049.84;;;20.74;48.75
47785;BME280;35233;55.686;37.848;2023-06-22T01:57:16;100050.38;;;20.79;48.71
47785;BME280;35233;55.686;37.848;2023-06-22T02:00:00;100051.28;;;20.80;49.11
47785;BME280;35233;55.686;37.848;2023-06-22T02:02:40;100048.78;;;20.77;48.96
47785;BME280;35233;55.686;37.848;2023-06-22T02:05:12;100058.44;;;20.79;48.94
47785;BME280;35233;55.686;37.848;2023-06-22T02:08:02;100059.22;;;20.82;48.94
47785;BME280;35233;55.686;37.848;2023-06-22T02:10:32;100059.22;;;20.82;48.97
47785;BME280;35233;55.686;37.848;2023-06-22T02:13:01;100051.34;;;20.78;48.80
47785;BME280;35233;55.686;37.848;2023-06-22T02:15:28;100053.94;;;20.80;49.13
47785;BME280;35233;55.686;37.848;2023-06-22T02:17:56;100057.38;;;20.82;48.66
47785;BME280;35233;55.686;37.848;2023-06-22T02:20:23;100061.69;;;20.85;48.88
47785;BME280;35233;55.686;37.848;2023-06-22T02:22:52;100050.19;;;20.83;48.74
47785;BME280;35233;55.686;37.848;2023-06-22T02:25:20;100042.13;;;20.83;49.06
47785;BME280;35233;55.686;37.848;2023-06-22T02:27:46;100039.28;;;20.86;48.98
47785;BME280;35233;55.686;37.848;2023-06-22T02:30:12;100033.91;;;20.86;48.51
47785;BME280;35233;55.686;37.848;2023-06-22T02:32:37;100024.22;;;20.83;48.76
47785;BME280;35233;55.686;37.848;2023-06-22T02:35:08;100028.53;;;20.86;48.80
47785;BME280;35233;55.686;37.848;2023-06-22T02:37:38;100012.41;;;20.86;48.76
47785;BME280;35233;55.686;37.848;2023-06-22T02:40:07;100022.38;;;20.84;48.93
47785;BME280;35233;55.686;37.848;2023-06-22T02:42:34;100021.34;;;20.86;48.61
47785;BME280;35233;55.686;37.848;2023-06-22T02:45:00;100014.34;;;20.84;48.76
47785;BME280;35233;55.686;37.848;2023-06-22T02:47:26;100013.47;;;20.83;48.80
47785;BME280;35233;55.686;37.848;2023-06-22T02:49:51;100020.56;;;20.84;48.59
47785;BME280;35233;55.686;37.848;2023-06-22T02:52:17;100012.59;;;20.83;48.68
47785;BME280;35233;55.686;37.848;2023-06-22T02:54:42;100014.91;;;20.89;48.92
47785;BME280;35233;55.686;37.848;2023-06-22T02:57:11;100006.84;;;20.89;48.87
47785;BME280;35233;55.686;37.848;2023-06-22T02:59:42;100009.31;;;20.92;48.45
47785;BME280;35233;55.686;37.848;2023-06-22T03:02:08;100010.38;;;20.89;48.58
47785;BME280;35233;55.686;37.848;2023-06-22T03:04:35;100005.09;;;20.88;48.58
47785;BME280;35233;55.686;37.848;2023-06-22T03:07:04;99996.09;;;20.89;48.64
47785;BME280;35233;55.686;37.848;2023-06-22T03:09:29;99991.03;;;20.84;48.52
47785;BME280;35233;55.686;37.848;2023-06-22T03:11:55;100002.69;;;20.97;48.15
47785;BME280;35233;55.686;37.848;2023-06-22T03:14:20;99996.22;;;21.00;48.22
47785;BME280;35233;55.686;37.848;2023-06-22T03:16:46;100007.75;;;21.02;48.39
47785;BME280;35233;55.686;37.848;2023-06-22T03:19:12;100000.66;;;21.01;48.33
47785;BME280;35233;55.686;37.848;2023-06-22T03:21:38;100005.63;;;21.07;47.92
47785;BME280;35233;55.686;37.848;2023-06-22T03:24:07;100007.34;;;21.08;48.60
47785;BME280;35233;55.686;37.848;2023-06-22T03:26:33;99995.53;;;21.11;48.06
47785;BME280;35233;55.686;37.848;2023-06-22T03:29:01;99995.31;;;21.14;47.76
47785;BME280;35233;55.686;37.848;2023-06-22T03:31:26;99997.06;;;21.15;47.74
47785;BME280;35233;55.686;37.848;2023-06-22T03:33:52;99988.88;;;21.16;48.00
47785;BME280;35233;55.686;37.848;2023-06-22T03:36:18;99997.50;;;21.21;47.73
47785;BME280;35233;55.686;37.848;2023-06-22T03:38:49;99995.59;;;21.23;47.88
47785;BME280;35233;55.686;37.848;2023-06-22T03:41:15;99990.09;;;21.25;47.85
47785;BME280;35233;55.686;37.848;2023-06-22T03:43:43;99984.63;;;21.27;47.86
47785;BME280;35233;55.686;37.848;2023-06-22T03:46:08;99981.75;;;21.30;47.55
47785;BME280;35233;55.686;37.848;2023-06-22T03:48:34;99992.06;;;21.36;47.88
47785;BME280;35233;55.686;37.848;2023-06-22T03:51:00;99976.84;;;21.36;47.50
47785;BME280;35233;55.686;37.848;2023-06-22T03:53:26;99971.34;;;21.38;47.80
47785;BME280;35233;55.686;37.848;2023-06-22T03:55:55;99966.50;;;21.43;47.58
47785;BME280;35233;55.686;37.848;2023-06-22T03:58:21;99975.13;;;21.48;47.59
47785;BME280;35233;55.686;37.848;2023-06-22T04:00:48;99980.94;;;21.55;47.40
47785;BME280;35233;55.686;37.848;2023-06-22T04:03:14;99970.97;;;21.57;47.30
47785;BME280;35233;55.686;37.848;2023-06-22T04:05:40;99968.91;;;21.60;47.07
47785;BME280;35233;55.686;37.848;2023-06-22T04:08:06;99964.19;;;21.64;46.68
47785;BME280;35233;55.686;37.848;2023-06-22T04:10:32;99955.91;;;21.67;46.65
47785;BME280;35233;55.686;37.848;2023-06-22T04:12:58;99959.47;;;21.67;46.61
47785;BME280;35233;55.686;37.848;2023-06-22T04:15:23;99958.28;;;21.72;46.87
47785;BME280;35233;55.686;37.848;2023-06-22T04:17:51;99960.66;;;21.76;47.11
47785;BME280;35233;55.686;37.848;2023-06-22T04:20:17;99956.91;;;21.79;46.42
47785;BME280;35233;55.686;37.848;2023-06-22T04:22:42;99960.66;;;21.89;46.58
47785;BME280;35233;55.686;37.848;2023-06-22T04:30:38;99952.78;;;21.99;46.47
47785;BME280;35233;55.686;37.848;2023-06-22T04:33:12;99955.69;;;22.08;46.21
47785;BME280;35233;55.686;37.848;2023-06-22T04:35:38;99953.00;;;22.21;45.61
47785;BME280;35233;55.686;37.848;2023-06-22T04:38:06;99946.63;;;22.22;45.97
47785;BME280;35233;55.686;37.848;2023-06-22T04:40:36;99938.78;;;22.32;45.82
47785;BME280;35233;55.686;37.848;2023-06-22T04:43:01;99942.19;;;22.34;45.36
47785;BME280;35233;55.686;37.848;2023-06-22T04:45:31;99932.41;;;22.33;45.61
47785;BME280;35233;55.686;37.848;2023-06-22T04:47:56;99928.66;;;22.35;45.62
47785;BME280;35233;55.686;37.848;2023-06-22T04:50:22;99930.03;;;22.41;45.56
47785;BME280;35233;55.686;37.848;2023-06-22T04:52:49;99935.72;;;22.49;45.11
47785;BME280;35233;55.686;37.848;2023-06-22T04:55:15;99924.09;;;22.49;45.48
47785;BME280;35233;55.686;37.848;2023-06-22T04:57:48;99936.44;;;22.51;45.20
47785;BME280;35233;55.686;37.848;2023-06-22T05:00:18;99929.50;;;22.49;45.32
47785;BME280;35233;55.686;37.848;2023-06-22T05:02:45;99926.44;;;22.53;45.43
47785;BME280;35233;55.686;37.848;2023-06-22T05:05:12;99942.38;;;22.56;45.24
47785;BME280;35233;55.686;37.848;2023-06-22T05:07:46;99942.66;;;22.65;44.83
47785;BME280;35233;55.686;37.848;2023-06-22T05:10:14;99941.03;;;22.75;44.71
47785;BME280;35233;55.686;37.848;2023-06-22T05:12:40;99952.19;;;22.81;44.92
47785;BME280;35233;55.686;37.848;2023-06-22T05:15:10;99946.56;;;22.85;44.59
47785;BME280;35233;55.686;37.848;2023-06-22T05:17:36;99939.69;;;22.80;44.60
47785;BME280;35233;55.686;37.848;2023-06-22T05:20:11;99929.03;;;22.79;44.80
47785;BME280;35233;55.686;37.848;2023-06-22T05:22:40;99933.66;;;22.77;44.68
47785;BME280;35233;55.686;37.848;2023-06-22T05:25:09;99928.19;;;22.78;45.05
47785;BME280;35233;55.686;37.848;2023-06-22T05:27:38;99938.19;;;22.76;44.79
47785;BME280;35233;55.686;37.848;2023-06-22T05:30:10;99919.69;;;22.72;45.00
47785;BME280;35233;55.686;37.848;2023-06-22T05:32:36;99930.69;;;22.69;45.08
47785;BME280;35233;55.686;37.848;2023-06-22T05:35:03;99925.25;;;22.57;45.29
47785;BME280;35233;55.686;37.848;2023-06-22T05:37:29;99933.56;;;22.54;45.49
47785;BME280;35233;55.686;37.848;2023-06-22T05:39:54;99933.44;;;22.56;45.55
47785;BME280;35233;55.686;37.848;2023-06-22T05:42:21;99924.81;;;22.64;45.29
47785;BME280;35233;55.686;37.848;2023-06-22T05:44:46;99932.41;;;22.70;45.31
47785;BME280;35233;55.686;37.848;2023-06-22T05:47:12;99920.78;;;22.69;45.16
47785;BME280;35233;55.686;37.848;2023-06-22T05:49:38;99931.97;;;22.76;44.99
47785;BME280;35233;55.686;37.848;2023-06-22T05:52:04;99926.91;;;22.71;45.00
47785;BME280;35233;55.686;37.848;2023-06-22T05:54:29;99919.47;;;22.75;45.16
47785;BME280;35233;55.686;37.848;2023-06-22T05:56:58;99928.41;;;22.75;45.12
47785;BME280;35233;55.686;37.848;2023-06-22T05:59:26;99912.34;;;22.74;45.00
47785;BME280;35233;55.686;37.848;2023-06-22T06:01:56;99928.56;;;22.85;45.08
47785;BME280;35233;55.686;37.848;2023-06-22T06:04:22;99915.00;;;22.87;44.82
47785;BME280;35233;55.686;37.848;2023-06-22T06:06:47;99926.97;;;22.82;44.98
47785;BME280;35233;55.686;37.848;2023-06-22T06:09:14;99922.91;;;22.77;45.47
47785;BME280;35233;55.686;37.848;2023-06-22T06:11:39;99927.56;;;22.75;45.00
47785;BME280;35233;55.686;37.848;2023-06-22T06:14:05;99923.66;;;22.79;45.16
47785;BME280;35233;55.686;37.848;2023-06-22T06:16:31;99915.97;;;22.86;45.34
47785;BME280;35233;55.686;37.848;2023-06-22T06:19:15;99921.97;;;22.89;40.31
47785;BME280;35233;55.686;37.848;2023-06-22T06:24:28;99907.50;;;22.79;38.93
47785;BME280;35233;55.686;37.848;2023-06-22T06:26:56;99901.19;;;22.67;37.41
47785;BME280;35233;55.686;37.848;2023-06-22T06:29:24;99925.47;;;22.54;37.50
47785;BME280;35233;55.686;37.848;2023-06-22T06:31:50;99919.22;;;22.54;37.35
47785;BME280;35233;55.686;37.848;2023-06-22T06:34:15;99919.13;;;22.43;36.71
47785;BME280;35233;55.686;37.848;2023-06-22T06:36:41;99914.03;;;22.64;36.46
47785;BME280;35233;55.686;37.848;2023-06-22T06:39:06;99916.78;;;22.75;36.70
47785;BME280;35233;55.686;37.848;2023-06-22T06:41:32;99910.50;;;22.50;35.59
47785;BME280;35233;55.686;37.848;2023-06-22T06:43:57;99912.66;;;22.82;35.92
47785;BME280;35233;55.686;37.848;2023-06-22T06:46:23;99906.22;;;23.20;35.94
47785;BME280;35233;55.686;37.848;2023-06-22T06:48:48;99893.84;;;22.93;35.70
47785;BME280;35233;55.686;37.848;2023-06-22T06:51:14;99911.22;;;23.13;35.92
47785;BME280;35233;55.686;37.848;2023-06-22T06:53:39;99903.47;;;22.85;35.20
47785;BME280;35233;55.686;37.848;2023-06-22T06:56:05;99907.78;;;22.87;35.60
47785;BME280;35233;55.686;37.848;2023-06-22T06:59:08;99911.41;;;22.99;34.83
47785;BME280;35233;55.686;37.848;2023-06-22T07:01:54;99903.47;;;23.09;35.11
47785;BME280;35233;55.686;37.848;2023-06-22T07:04:23;99901.25;;;23.49;34.99
47785;BME280;35233;55.686;37.848;2023-06-22T07:06:48;99905.16;;;23.34;33.81
47785;BME280;35233;55.686;37.848;2023-06-22T07:09:13;99899.22;;;22.93;33.32
47785;BME280;35233;55.686;37.848;2023-06-22T07:11:39;99894.94;;;22.91;33.20
47785;BME280;35233;55.686;37.848;2023-06-22T07:14:04;99894.31;;;23.11;33.92
47785;BME280;35233;55.686;37.848;2023-06-22T07:16:30;99901.38;;;23.59;33.98
47785;BME280;35233;55.686;37.848;2023-06-22T07:19:15;99896.50;;;23.64;33.86
47785;BME280;35233;55.686;37.848;2023-06-22T07:21:40;99885.44;;;23.44;33.43
47785;BME280;35233;55.686;37.848;2023-06-22T07:24:09;99894.19;;;23.59;34.04
47785;BME280;35233;55.686;37.848;2023-06-22T07:26:34;99885.72;;;23.64;34.25
47785;BME280;35233;55.686;37.848;2023-06-22T07:29:00;99888.56;;;23.27;33.62
47785;BME280;35233;55.686;37.848;2023-06-22T07:31:25;99898.91;;;23.44;32.83
47785;BME280;35233;55.686;37.848;2023-06-22T07:33:51;99886.56;;;23.07;32.11
47785;BME280;35233;55.686;37.848;2023-06-22T07:36:17;99887.66;;;23.39;33.31
47785;BME280;35233;55.686;37.848;2023-06-22T07:38:43;99905.59;;;23.63;32.84
47785;BME280;35233;55.686;37.848;2023-06-22T07:41:09;99900.81;;;23.66;32.72
47785;BME280;35233;55.686;37.848;2023-06-22T07:43:35;99893.28;;;23.59;32.67
47785;BME280;35233;55.686;37.848;2023-06-22T07:46:05;99897.44;;;23.40;32.74
47785;BME280;35233;55.686;37.848;2023-06-22T07:48:31;99879.25;;;23.20;33.08
47785;BME280;35233;55.686;37.848;2023-06-22T07:53:41;99888.22;;;23.78;32.91
47785;BME280;35233;55.686;37.848;2023-06-22T07:56:16;99887.75;;;23.38;33.17
47785;BME280;35233;55.686;37.848;2023-06-22T07:59:00;99889.66;;;23.60;32.77
47785;BME280;35233;55.686;37.848;2023-06-22T08:01:27;99885.47;;;23.67;32.57
47785;BME280;35233;55.686;37.848;2023-06-22T08:03:52;99897.84;;;23.58;32.52
47785;BME280;35233;55.686;37.848;2023-06-22T08:06:18;99882.50;;;23.59;33.05
47785;BME280;35233;55.686;37.848;2023-06-22T08:08:43;99888.38;;;23.53;32.32
47785;BME280;35233;55.686;37.848;2023-06-22T08:11:09;99880.94;;;23.67;33.52
47785;BME280;35233;55.686;37.848;2023-06-22T08:13:35;99870.81;;;23.71;33.34
47785;BME280;35233;55.686;37.848;2023-06-22T08:16:00;99871.50;;;23.50;33.42
47785;BME280;35233;55.686;37.848;2023-06-22T08:18:26;99869.25;;;23.44;33.30
47785;BME280;35233;55.686;37.848;2023-06-22T08:20:51;99867.53;;;23.32;32.54
47785;BME280;35233;55.686;37.848;2023-06-22T08:23:17;99870.50;;;23.52;33.57
47785;BME280;35233;55.686;37.848;2023-06-22T08:25:42;99863.31;;;23.97;32.97
47785;BME280;35233;55.686;37.848;2023-06-22T08:28:08;99861.34;;;23.99;33.10
47785;BME280;35233;55.686;37.848;2023-06-22T08:30:33;99857.44;;;23.92;33.04
47785;BME280;35233;55.686;37.848;2023-06-22T08:32:59;99854.34;;;23.97;32.77
47785;BME280;35233;55.686;37.848;2023-06-22T08:35:24;99851.66;;;23.97;32.64
47785;BME280;35233;55.686;37.848;2023-06-22T08:37:50;99854.34;;;23.97;32.67
47785;BME280;35233;55.686;37.848;2023-06-22T08:40:21;99849.91;;;24.18;32.44
47785;BME280;35233;55.686;37.848;2023-06-22T08:42:47;99849.78;;;24.08;32.44
47785;BME280;35233;55.686;37.848;2023-06-22T08:45:13;99862.69;;;24.05;31.96
47785;BME280;35233;55.686;37.848;2023-06-22T08:47:39;99858.63;;;24.10;31.92
47785;BME280;35233;55.686;37.848;2023-06-22T08:50:07;99841.84;;;24.07;32.34
47785;BME280;35233;55.686;37.848;2023-06-22T08:52:34;99844.53;;;24.07;32.14
47785;BME280;35233;55.686;37.848;2023-06-22T08:55:18;99852.00;;;23.69;32.82
47785;BME280;35233;55.686;37.848;2023-06-22T08:57:43;99845.53;;;23.83;32.93
47785;BME280;35233;55.686;37.848;2023-06-22T09:00:10;99838.66;;;24.02;33.14
47785;BME280;35233;55.686;37.848;2023-06-22T09:02:45;99834.38;;;23.88;33.15
47785;BME280;35233;55.686;37.848;2023-06-22T09:05:13;99841.59;;;23.87;33.40
47785;BME280;35233;55.686;37.848;2023-06-22T09:07:57;99841.59;;;23.76;33.05
47785;BME280;35233;55.686;37.848;2023-06-22T09:10:24;99837.56;;;23.93;32.84
47785;BME280;35233;55.686;37.848;2023-06-22T09:13:08;99822.13;;;23.84;32.87
47785;BME280;35233;55.686;37.848;2023-06-22T09:15:39;99830.31;;;23.93;32.49
47785;BME280;35233;55.686;37.848;2023-06-22T09:18:05;99827.16;;;23.88;32.63
47785;BME280;35233;55.686;37.848;2023-06-22T09:20:48;99828.59;;;23.81;33.01
47785;BME280;35233;55.686;37.848;2023-06-22T09:23:14;99815.25;;;23.80;32.96
47785;BME280;35233;55.686;37.848;2023-06-22T09:25:40;99817.56;;;23.84;32.63
47785;BME280;35233;55.686;37.848;2023-06-22T09:28:06;99807.75;;;23.94;32.72
47785;BME280;35233;55.686;37.848;2023-06-22T09:30:31;99813.97;;;24.17;32.03
47785;BME280;35233;55.686;37.848;2023-06-22T09:32:57;99800.03;;;23.90;32.06
47785;BME280;35233;55.686;37.848;2023-06-22T09:35:22;99809.97;;;23.89;31.94
47785;BME280;35233;55.686;37.848;2023-06-22T09:40:50;99810.91;;;24.00;32.01
47785;BME280;35233;55.686;37.848;2023-06-22T09:43:16;99812.00;;;24.20;32.00
47785;BME280;35233;55.686;37.848;2023-06-22T09:45:42;99812.25;;;24.16;31.74
47785;BME280;35233;55.686;37.848;2023-06-22T09:48:07;99808.69;;;24.16;31.52
47785;BME280;35233;55.686;37.848;2023-06-22T09:53:19;99803.63;;;24.23;31.85
47785;BME280;35233;55.686;37.848;2023-06-22T09:58:46;99802.50;;;24.36;32.01
47785;BME280;35233;55.686;37.848;2023-06-22T10:01:13;99797.34;;;24.33;31.78
47785;BME280;35233;55.686;37.848;2023-06-22T10:03:42;99785.94;;;24.41;31.44
47785;BME280;35233;55.686;37.848;2023-06-22T10:06:25;99773.03;;;24.45;31.38
47785;BME280;35233;55.686;37.848;2023-06-22T10:08:51;99784.59;;;24.35;31.30
47785;BME280;35233;55.686;37.848;2023-06-22T10:11:17;99782.59;;;24.37;30.92
47785;BME280;35233;55.686;37.848;2023-06-22T10:13:43;99775.97;;;24.42;31.23
47785;BME280;35233;55.686;37.848;2023-06-22T10:16:08;99777.06;;;24.50;30.94
47785;BME280;35233;55.686;37.848;2023-06-22T10:18:34;99774.38;;;24.50;30.52
47785;BME280;35233;55.686;37.848;2023-06-22T10:21:00;99782.47;;;24.39;31.26
47785;BME280;35233;55.686;37.848;2023-06-22T10:23:25;99783.13;;;24.31;31.26
47785;BME280;35233;55.686;37.848;2023-06-22T10:25:51;99763.53;;;24.18;31.17
47785;BME280;35233;55.686;37.848;2023-06-22T10:28:35;99770.94;;;24.37;31.22
47785;BME280;35233;55.686;37.848;2023-06-22T10:31:00;99765.31;;;24.29;31.19
47785;BME280;35233;55.686;37.848;2023-06-22T10:33:26;99765.22;;;24.30;31.03
47785;BME280;35233;55.686;37.848;2023-06-22T10:35:51;99754.66;;;24.27;31.00
47785;BME280;35233;55.686;37.848;2023-06-22T10:38:17;99753.72;;;24.49;30.46
47785;BME280;35233;55.686;37.848;2023-06-22T10:40:42;99732.66;;;24.43;30.86
47785;BME280;35233;55.686;37.848;2023-06-22T10:43:26;99753.63;;;24.39;31.15
47785;BME280;35233;55.686;37.848;2023-06-22T10:45:52;99756.59;;;24.48;31.20
47785;BME280;35233;55.686;37.848;2023-06-22T10:48:17;99751.88;;;24.61;31.37
47785;BME280;35233;55.686;37.848;2023-06-22T10:50:43;99746.06;;;24.66;31.14
47785;BME280;35233;55.686;37.848;2023-06-22T10:53:08;99749.81;;;24.53;31.42
47785;BME280;35233;55.686;37.848;2023-06-22T10:55:34;99758.03;;;24.52;30.91
47785;BME280;35233;55.686;37.848;2023-06-22T10:57:59;99749.81;;;24.53;31.33
47785;BME280;35233;55.686;37.848;2023-06-22T11:00:43;99745.00;;;24.57;31.02
47785;BME280;35233;55.686;37.848;2023-06-22T11:03:08;99739.47;;;24.58;31.16
47785;BME280;35233;55.686;37.848;2023-06-22T11:05:53;99738.88;;;24.76;30.98
47785;BME280;35233;55.686;37.848;2023-06-22T11:11:02;99734.97;;;24.48;31.27
47785;BME280;35233;55.686;37.848;2023-06-22T11:13:46;99730.75;;;24.55;31.15
47785;BME280;35233;55.686;37.848;2023-06-22T11:18:55;99734.13;;;24.89;31.70
47785;BME280;35233;55.686;37.848;2023-06-22T11:26:52;99725.44;;;24.85;31.62
47785;BME280;35233;55.686;37.848;2023-06-22T11:29:36;99720.25;;;25.03;30.95
47785;BME280;35233;55.686;37.848;2023-06-22T11:32:04;99717.16;;;25.08;30.83
47785;BME280;35233;55.686;37.848;2023-06-22T11:34:29;99727.56;;;25.13;30.22
47785;BME280;35233;55.686;37.848;2023-06-22T11:36:55;99713.25;;;25.22;29.94
47785;BME280;35233;55.686;37.848;2023-06-22T11:39:21;99716.56;;;25.25;30.46
47785;BME280;35233;55.686;37.848;2023-06-22T11:41:46;99704.75;;;25.26;30.68
47785;BME280;35233;55.686;37.848;2023-06-22T11:44:12;99700.47;;;25.24;31.28
47785;BME280;35233;55.686;37.848;2023-06-22T11:46:37;99703.19;;;25.34;31.25
47785;BME280;35233;55.686;37.848;2023-06-22T11:54:52;99696.81;;;25.35;31.62
47785;BME280;35233;55.686;37.848;2023-06-22T11:57:23;99689.56;;;25.35;30.94
47785;BME280;35233;55.686;37.848;2023-06-22T11:59:49;99675.59;;;25.30;32.52
47785;BME280;35233;55.686;37.848;2023-06-22T12:02:14;99680.88;;;25.32;32.23
47785;BME280;35233;55.686;37.848;2023-06-22T12:04:40;99680.31;;;25.38;32.14
47785;BME280;35233;55.686;37.848;2023-06-22T12:07:05;99680.50;;;25.46;31.66
47785;BME280;35233;55.686;37.848;2023-06-22T12:09:49;99662.81;;;25.42;32.25
47785;BME280;35233;55.686;37.848;2023-06-22T12:12:17;99647.56;;;25.31;32.44
47785;BME280;35233;55.686;37.848;2023-06-22T12:14:50;99649.34;;;25.51;31.03
47785;BME280;35233;55.686;37.848;2023-06-22T12:17:16;99659.03;;;25.54;32.66
47785;BME280;35233;55.686;37.848;2023-06-22T12:19:41;99653.19;;;25.59;31.53
47785;BME280;35233;55.686;37.848;2023-06-22T12:22:25;99650.19;;;25.62;32.05
47785;BME280;35233;55.686;37.848;2023-06-22T12:25:17;99611.44;;;25.42;31.88
47785;BME280;35233;55.686;37.848;2023-06-22T12:27:45;99640.78;;;25.46;32.96
47785;BME280;35233;55.686;37.848;2023-06-22T12:30:13;99621.56;;;25.40;33.06
47785;BME280;35233;55.686;37.848;2023-06-22T12:32:39;99635.81;;;25.51;32.37
47785;BME280;35233;55.686;37.848;2023-06-22T12:35:04;99629.84;;;25.67;32.06
47785;BME280;35233;55.686;37.848;2023-06-22T12:37:30;99639.41;;;25.71;32.71
47785;BME280;35233;55.686;37.848;2023-06-22T12:40:00;99629.44;;;25.82;31.67
47785;BME280;35233;55.686;37.848;2023-06-22T12:42:47;99634.84;;;25.82;31.56
47785;BME280;35233;55.686;37.848;2023-06-22T12:45:13;99630.28;;;25.72;31.89
47785;BME280;35233;55.686;37.848;2023-06-22T12:47:38;99631.41;;;25.60;32.74
47785;BME280;35233;55.686;37.848;2023-06-22T12:50:04;99628.81;;;25.49;32.88
47785;BME280;35233;55.686;37.848;2023-06-22T12:52:30;99617.00;;;25.40;33.24
47785;BME280;35233;55.686;37.848;2023-06-22T12:54:57;99618.28;;;25.46;32.72
47785;BME280;35233;55.686;37.848;2023-06-22T12:57:23;99612.47;;;25.70;32.74
47785;BME280;35233;55.686;37.848;2023-06-22T12:59:49;99606.09;;;25.81;32.93
47785;BME280;35233;55.686;37.848;2023-06-22T13:02:14;99603.41;;;25.90;32.57
47785;BME280;35233;55.686;37.848;2023-06-22T13:04:40;99608.78;;;26.00;32.85
47785;BME280;35233;55.686;37.848;2023-06-22T13:07:05;99604.09;;;26.02;32.52
47785;BME280;35233;55.686;37.848;2023-06-22T13:09:31;99605.66;;;26.14;32.15
47785;BME280;35233;55.686;37.848;2023-06-22T13:11:56;99603.94;;;26.23;32.34
47785;BME280;35233;55.686;37.848;2023-06-22T13:14:22;99608.94;;;26.28;32.40
47785;BME280;35233;55.686;37.848;2023-06-22T13:16:47;99609.75;;;26.57;31.03
47785;BME280;35233;55.686;37.848;2023-06-22T13:19:13;99604.28;;;26.77;30.61
47785;BME280;35233;55.686;37.848;2023-06-22T13:21:38;99594.22;;;26.87;29.98
47785;BME280;35233;55.686;37.848;2023-06-22T13:24:04;99591.97;;;26.82;31.13
47785;BME280;35233;55.686;37.848;2023-06-22T13:26:31;99594.59;;;26.64;31.12
47785;BME280;35233;55.686;37.848;2023-06-22T13:28:57;99586.06;;;26.59;31.01
47785;BME280;35233;55.686;37.848;2023-06-22T13:31:22;99580.91;;;26.66;30.88
47785;BME280;35233;55.686;37.848;2023-06-22T13:33:48;99588.16;;;26.75;31.62